sensor_id;sensor_type;location;lat;lon;timestamp;temperature;humidity
11989;DHT22;6054;50.966;7.094;2022-12-01T00:00:45;14.60;58.10
11989;DHT22;6054;50.966;7.094;2022-12-01T00:03:12;14.60;58.10
11989;DHT22;6054;50.966;7.094;2022-12-01T00:05:39;14.60;56.10
11989;DHT22;6054;50.966;7.094;2022-12-01T00:08:08;14.60;56.30
11989;DHT22;6054;50.966;7.094;2022-12-01T00:10:35;14.60;56.20
11989;DHT22;6054;50.966;7.094;2022-12-01T00:13:03;14.80;57.70
11989;DHT22;6054;50.966;7.094;2022-12-01T00:15:32;14.60;58.80
11989;DHT22;6054;50.966;7.094;2022-12-01T00:18:00;14.50;58.10
11989;DHT22;6054;50.966;7.094;2022-12-01T00:20:27;14.50;58.30
11989;DHT22;6054;50.966;7.094;2022-12-01T00:22:54;14.50;57.90
11989;DHT22;6054;50.966;7.094;2022-12-01T00:25:22;14.50;57.40
11989;DHT22;6054;50.966;7.094;2022-12-01T00:27:50;14.50;58.20
11989;DHT22;6054;50.966;7.094;2022-12-01T00:30:18;14.50;59.20
11989;DHT22;6054;50.966;7.094;2022-12-01T00:32:46;14.50;59.00
11989;DHT22;6054;50.966;7.094;2022-12-01T00:35:14;14.50;59.10
11989;DHT22;6054;50.966;7.094;2022-12-01T00:37:41;14.50;59.10
11989;DHT22;6054;50.966;7.094;2022-12-01T00:40:09;14.50;58.80
11989;DHT22;6054;50.966;7.094;2022-12-01T00:42:38;14.50;59.30
11989;DHT22;6054;50.966;7.094;2022-12-01T00:45:06;14.60;58.50
11989;DHT22;6054;50.966;7.094;2022-12-01T00:47:32;14.50;59.20
11989;DHT22;6054;50.966;7.094;2022-12-01T00:50:00;14.50;57.90
11989;DHT22;6054;50.966;7.094;2022-12-01T00:52:27;14.50;57.80
11989;DHT22;6054;50.966;7.094;2022-12-01T00:54:54;14.50;58.30
11989;DHT22;6054;50.966;7.094;2022-12-01T00:57:21;14.60;57.60
11989;DHT22;6054;50.966;7.094;2022-12-01T00:59:49;14.70;59.00
11989;DHT22;6054;50.966;7.094;2022-12-01T01:02:15;14.60;57.60
11989;DHT22;6054;50.966;7.094;2022-12-01T01:04:42;14.50;58.10
11989;DHT22;6054;50.966;7.094;2022-12-01T01:07:09;14.50;58.20
11989;DHT22;6054;50.966;7.094;2022-12-01T01:09:36;14.50;57.60
11989;DHT22;6054;50.966;7.094;2022-12-01T01:12:03;14.50;58.20
11989;DHT22;6054;50.966;7.094;2022-12-01T01:14:30;14.50;58.30
11989;DHT22;6054;50.966;7.094;2022-12-01T01:16:58;14.50;57.20
11989;DHT22;6054;50.966;7.094;2022-12-01T01:19:25;14.50;58.10
11989;DHT22;6054;50.966;7.094;2022-12-01T01:21:52;14.50;58.40
11989;DHT22;6054;50.966;7.094;2022-12-01T01:24:19;14.60;58.80
11989;DHT22;6054;50.966;7.094;2022-12-01T01:26:45;14.40;57.90
11989;DHT22;6054;50.966;7.094;2022-12-01T01:29:12;14.60;58.00
11989;DHT22;6054;50.966;7.094;2022-12-01T01:31:39;14.50;58.20
11989;DHT22;6054;50.966;7.094;2022-12-01T01:34:07;14.50;58.10
11989;DHT22;6054;50.966;7.094;2022-12-01T01:36:34;14.70;58.40
11989;DHT22;6054;50.966;7.094;2022-12-01T01:39:01;14.50;57.30
11989;DHT22;6054;50.966;7.094;2022-12-01T01:41:29;14.50;58.80
11989;DHT22;6054;50.966;7.094;2022-12-01T01:43:57;14.50;57.10
11989;DHT22;6054;50.966;7.094;2022-12-01T01:46:26;14.50;58.60
11989;DHT22;6054;50.966;7.094;2022-12-01T01:48:56;14.70;59.10
11989;DHT22;6054;50.966;7.094;2022-12-01T01:51:29;14.80;59.20
11989;DHT22;6054;50.966;7.094;2022-12-01T01:54:01;14.50;58.80
11989;DHT22;6054;50.966;7.094;2022-12-01T01:56:28;14.50;58.90
11989;DHT22;6054;50.966;7.094;2022-12-01T01:58:56;14.50;58.50
11989;DHT22;6054;50.966;7.094;2022-12-01T02:01:23;14.50;59.00
11989;DHT22;6054;50.966;7.094;2022-12-01T02:03:51;14.60;58.00
11989;DHT22;6054;50.966;7.094;2022-12-01T02:06:19;14.50;59.10
11989;DHT22;6054;50.966;7.094;2022-12-01T02:08:47;14.50;58.30
11989;DHT22;6054;50.966;7.094;2022-12-01T02:11:38;14.40;58.30
11989;DHT22;6054;50.966;7.094;2022-12-01T02:14:26;14.50;59.50
11989;DHT22;6054;50.966;7.094;2022-12-01T02:17:02;14.40;59.30
11989;DHT22;6054;50.966;7.094;2022-12-01T02:19:49;14.60;59.30
11989;DHT22;6054;50.966;7.094;2022-12-01T02:22:26;14.70;59.50
11989;DHT22;6054;50.966;7.094;2022-12-01T02:25:15;14.40;59.40
11989;DHT22;6054;50.966;7.094;2022-12-01T02:28:11;14.50;59.40
11989;DHT22;6054;50.966;7.094;2022-12-01T02:30:44;14.40;59.70
11989;DHT22;6054;50.966;7.094;2022-12-01T02:33:17;14.40;59.70
11989;DHT22;6054;50.966;7.094;2022-12-01T02:35:49;14.40;59.50
11989;DHT22;6054;50.966;7.094;2022-12-01T02:38:23;14.70;59.50
11989;DHT22;6054;50.966;7.094;2022-12-01T02:40:55;14.40;59.60
11989;DHT22;6054;50.966;7.094;2022-12-01T02:43:28;14.40;59.60
11989;DHT22;6054;50.966;7.094;2022-12-01T02:46:01;14.40;59.60
11989;DHT22;6054;50.966;7.094;2022-12-01T02:48:32;14.40;59.50
11989;DHT22;6054;50.966;7.094;2022-12-01T02:51:03;14.40;59.20
11989;DHT22;6054;50.966;7.094;2022-12-01T02:53:31;14.40;59.20
11989;DHT22;6054;50.966;7.094;2022-12-01T02:55:59;14.40;59.00
11989;DHT22;6054;50.966;7.094;2022-12-01T02:58:26;14.40;58.50
11989;DHT22;6054;50.966;7.094;2022-12-01T03:01:05;14.60;58.70
11989;DHT22;6054;50.966;7.094;2022-12-01T03:03:44;14.30;59.50
11989;DHT22;6054;50.966;7.094;2022-12-01T03:06:19;14.30;59.50
11989;DHT22;6054;50.966;7.094;2022-12-01T03:08:53;14.60;59.20
11989;DHT22;6054;50.966;7.094;2022-12-01T03:11:33;14.40;58.90
11989;DHT22;6054;50.966;7.094;2022-12-01T03:14:10;14.60;58.90
11989;DHT22;6054;50.966;7.094;2022-12-01T03:16:46;14.30;59.50
11989;DHT22;6054;50.966;7.094;2022-12-01T03:19:18;14.70;59.60
11989;DHT22;6054;50.966;7.094;2022-12-01T03:21:54;14.40;59.40
11989;DHT22;6054;50.966;7.094;2022-12-01T03:27:47;14.40;59.70
11989;DHT22;6054;50.966;7.094;2022-12-01T03:30:15;14.40;59.70
11989;DHT22;6054;50.966;7.094;2022-12-01T03:32:46;14.40;59.10
11989;DHT22;6054;50.966;7.094;2022-12-01T03:35:17;14.60;59.90
11989;DHT22;6054;50.966;7.094;2022-12-01T03:37:51;14.40;59.80
11989;DHT22;6054;50.966;7.094;2022-12-01T08:21:20;14.40;60.20
11989;DHT22;6054;50.966;7.094;2022-12-01T08:23:50;14.40;60.10
11989;DHT22;6054;50.966;7.094;2022-12-01T08:26:18;14.40;60.00
11989;DHT22;6054;50.966;7.094;2022-12-01T08:28:45;14.60;60.10
11989;DHT22;6054;50.966;7.094;2022-12-01T08:31:14;14.50;59.50
11989;DHT22;6054;50.966;7.094;2022-12-01T08:33:41;14.50;60.00
11989;DHT22;6054;50.966;7.094;2022-12-01T08:36:08;14.60;59.80
11989;DHT22;6054;50.966;7.094;2022-12-01T08:38:36;14.50;59.00
11989;DHT22;6054;50.966;7.094;2022-12-01T08:41:04;14.70;59.40
11989;DHT22;6054;50.966;7.094;2022-12-01T08:43:32;14.50;59.70
11989;DHT22;6054;50.966;7.094;2022-12-01T08:45:58;14.60;58.70
11989;DHT22;6054;50.966;7.094;2022-12-01T08:48:26;14.50;59.20
11989;DHT22;6054;50.966;7.094;2022-12-01T08:51:00;14.50;59.10
11989;DHT22;6054;50.966;7.094;2022-12-01T08:53:27;14.50;59.40
11989;DHT22;6054;50.966;7.094;2022-12-01T08:55:58;14.50;59.00
11989;DHT22;6054;50.966;7.094;2022-12-01T08:58:25;14.50;59.50
11989;DHT22;6054;50.966;7.094;2022-12-01T09:00:52;14.50;59.20
11989;DHT22;6054;50.966;7.094;2022-12-01T09:03:19;14.50;58.90
11989;DHT22;6054;50.966;7.094;2022-12-01T09:05:45;14.50;58.80
11989;DHT22;6054;50.966;7.094;2022-12-01T09:08:12;14.50;58.40
11989;DHT22;6054;50.966;7.094;2022-12-01T09:10:59;14.50;59.40
11989;DHT22;6054;50.966;7.094;2022-12-01T09:13:26;14.50;59.50
11989;DHT22;6054;50.966;7.094;2022-12-01T09:15:55;14.50;59.20
11989;DHT22;6054;50.966;7.094;2022-12-01T09:18:22;14.50;59.80
11989;DHT22;6054;50.966;7.094;2022-12-01T09:20:48;14.50;59.40
11989;DHT22;6054;50.966;7.094;2022-12-01T09:23:15;14.60;59.10
11989;DHT22;6054;50.966;7.094;2022-12-01T09:25:42;14.60;59.20
11989;DHT22;6054;50.966;7.094;2022-12-01T09:28:10;14.80;59.30
11989;DHT22;6054;50.966;7.094;2022-12-01T09:30:37;14.60;59.20
11989;DHT22;6054;50.966;7.094;2022-12-01T09:33:04;14.60;59.30
11989;DHT22;6054;50.966;7.094;2022-12-01T09:35:32;14.70;59.40
11989;DHT22;6054;50.966;7.094;2022-12-01T09:37:58;14.60;59.10
11989;DHT22;6054;50.966;7.094;2022-12-01T09:40:29;14.60;58.90
11989;DHT22;6054;50.966;7.094;2022-12-01T09:42:57;14.60;59.60
11989;DHT22;6054;50.966;7.094;2022-12-01T09:45:30;14.60;59.30
11989;DHT22;6054;50.966;7.094;2022-12-01T09:47:59;14.60;59.10
11989;DHT22;6054;50.966;7.094;2022-12-01T09:50:28;14.60;59.10
11989;DHT22;6054;50.966;7.094;2022-12-01T09:52:57;14.60;59.20
11989;DHT22;6054;50.966;7.094;2022-12-01T09:55:25;14.60;59.00
11989;DHT22;6054;50.966;7.094;2022-12-01T09:57:53;14.60;58.40
11989;DHT22;6054;50.966;7.094;2022-12-01T10:00:23;14.60;59.00
11989;DHT22;6054;50.966;7.094;2022-12-01T10:02:53;14.60;59.00
11989;DHT22;6054;50.966;7.094;2022-12-01T10:05:23;14.60;58.80
11989;DHT22;6054;50.966;7.094;2022-12-01T10:07:53;14.50;59.00
11989;DHT22;6054;50.966;7.094;2022-12-01T10:10:25;14.60;59.20
11989;DHT22;6054;50.966;7.094;2022-12-01T10:12:53;14.60;59.00
11989;DHT22;6054;50.966;7.094;2022-12-01T10:15:29;14.70;58.60
11989;DHT22;6054;50.966;7.094;2022-12-01T10:18:09;14.60;59.20
11989;DHT22;6054;50.966;7.094;2022-12-01T10:20:43;14.90;59.50
11989;DHT22;6054;50.966;7.094;2022-12-01T10:23:32;14.70;59.30
11989;DHT22;6054;50.966;7.094;2022-12-01T10:26:09;14.60;59.20
11989;DHT22;6054;50.966;7.094;2022-12-01T10:29:00;14.70;59.00
11989;DHT22;6054;50.966;7.094;2022-12-01T10:31:33;14.70;59.20
11989;DHT22;6054;50.966;7.094;2022-12-01T10:34:06;14.70;59.00
11989;DHT22;6054;50.966;7.094;2022-12-01T10:36:33;14.60;59.00
11989;DHT22;6054;50.966;7.094;2022-12-01T10:39:02;15.00;58.90
11989;DHT22;6054;50.966;7.094;2022-12-01T10:41:32;14.70;59.10
11989;DHT22;6054;50.966;7.094;2022-12-01T10:44:02;14.70;59.00
11989;DHT22;6054;50.966;7.094;2022-12-01T10:46:36;14.80;58.70
11989;DHT22;6054;50.966;7.094;2022-12-01T10:49:09;14.80;58.70
11989;DHT22;6054;50.966;7.094;2022-12-01T10:51:51;14.80;58.70
11989;DHT22;6054;50.966;7.094;2022-12-01T10:54:19;15.00;58.90
11989;DHT22;6054;50.966;7.094;2022-12-01T10:56:54;14.70;58.20
11989;DHT22;6054;50.966;7.094;2022-12-01T10:59:25;14.60;58.40
11989;DHT22;6054;50.966;7.094;2022-12-01T11:01:53;14.70;58.80
11989;DHT22;6054;50.966;7.094;2022-12-01T11:04:38;14.70;58.30
11989;DHT22;6054;50.966;7.094;2022-12-01T11:07:19;14.70;59.00
11989;DHT22;6054;50.966;7.094;2022-12-01T11:10:12;14.70;58.80
11989;DHT22;6054;50.966;7.094;2022-12-01T11:12:41;14.70;58.90
11989;DHT22;6054;50.966;7.094;2022-12-01T11:15:18;14.70;58.80
11989;DHT22;6054;50.966;7.094;2022-12-01T11:17:46;14.70;58.80
11989;DHT22;6054;50.966;7.094;2022-12-01T11:20:30;14.70;58.40
11989;DHT22;6054;50.966;7.094;2022-12-01T11:23:22;14.70;58.40
11989;DHT22;6054;50.966;7.094;2022-12-01T11:26:03;14.90;58.20
11989;DHT22;6054;50.966;7.094;2022-12-01T11:28:31;14.70;58.20
11989;DHT22;6054;50.966;7.094;2022-12-01T11:31:02;14.80;57.90
11989;DHT22;6054;50.966;7.094;2022-12-01T11:33:31;14.80;58.10
11989;DHT22;6054;50.966;7.094;2022-12-01T11:36:00;14.60;57.90
11989;DHT22;6054;50.966;7.094;2022-12-01T11:38:32;14.60;57.30
11989;DHT22;6054;50.966;7.094;2022-12-01T11:40:59;14.90;57.80
11989;DHT22;6054;50.966;7.094;2022-12-01T11:43:28;14.60;57.00
11989;DHT22;6054;50.966;7.094;2022-12-01T11:45:58;14.90;57.70
11989;DHT22;6054;50.966;7.094;2022-12-01T11:48:28;14.70;57.50
11989;DHT22;6054;50.966;7.094;2022-12-01T11:51:06;14.60;57.00
11989;DHT22;6054;50.966;7.094;2022-12-01T11:53:35;14.60;57.30
11989;DHT22;6054;50.966;7.094;2022-12-01T11:56:15;14.60;56.40
11989;DHT22;6054;50.966;7.094;2022-12-01T11:58:42;14.60;56.90
11989;DHT22;6054;50.966;7.094;2022-12-01T12:01:16;14.60;57.20
11989;DHT22;6054;50.966;7.094;2022-12-01T12:03:50;14.60;57.40
11989;DHT22;6054;50.966;7.094;2022-12-01T12:06:22;14.60;57.40
11989;DHT22;6054;50.966;7.094;2022-12-01T12:09:05;14.90;57.70
11989;DHT22;6054;50.966;7.094;2022-12-01T12:11:41;14.60;57.60
11989;DHT22;6054;50.966;7.094;2022-12-01T12:14:24;14.60;57.30
11989;DHT22;6054;50.966;7.094;2022-12-01T12:17:07;14.70;57.50
11989;DHT22;6054;50.966;7.094;2022-12-01T12:19:51;14.90;57.40
11989;DHT22;6054;50.966;7.094;2022-12-01T12:22:32;14.70;56.80
11989;DHT22;6054;50.966;7.094;2022-12-01T12:25:11;14.90;57.00
11989;DHT22;6054;50.966;7.094;2022-12-01T12:27:50;14.60;56.80
11989;DHT22;6054;50.966;7.094;2022-12-01T12:30:21;14.90;56.20
11989;DHT22;6054;50.966;7.094;2022-12-01T12:33:07;14.60;56.60
11989;DHT22;6054;50.966;7.094;2022-12-01T12:35:45;14.70;57.30
11989;DHT22;6054;50.966;7.094;2022-12-01T12:38:32;14.90;57.50
11989;DHT22;6054;50.966;7.094;2022-12-01T12:41:12;14.70;57.30
11989;DHT22;6054;50.966;7.094;2022-12-01T12:43:44;14.90;57.40
11989;DHT22;6054;50.966;7.094;2022-12-01T12:46:17;14.70;57.10
11989;DHT22;6054;50.966;7.094;2022-12-01T12:48:59;14.70;56.80
11989;DHT22;6054;50.966;7.094;2022-12-01T12:51:33;14.70;57.00
11989;DHT22;6054;50.966;7.094;2022-12-01T12:54:12;14.80;56.70
11989;DHT22;6054;50.966;7.094;2022-12-01T12:56:44;14.70;56.70
11989;DHT22;6054;50.966;7.094;2022-12-01T12:59:15;14.70;56.60
11989;DHT22;6054;50.966;7.094;2022-12-01T13:01:50;14.70;56.70
11989;DHT22;6054;50.966;7.094;2022-12-01T13:04:21;15.00;57.00
11989;DHT22;6054;50.966;7.094;2022-12-01T13:06:50;14.70;56.60
11989;DHT22;6054;50.966;7.094;2022-12-01T13:09:24;15.00;56.60
11989;DHT22;6054;50.966;7.094;2022-12-01T13:11:56;14.70;56.30
11989;DHT22;6054;50.966;7.094;2022-12-01T13:14:27;14.70;56.70
11989;DHT22;6054;50.966;7.094;2022-12-01T13:17:11;14.70;56.70
11989;DHT22;6054;50.966;7.094;2022-12-01T13:19:41;14.80;56.50
11989;DHT22;6054;50.966;7.094;2022-12-01T13:22:11;14.80;56.00
11989;DHT22;6054;50.966;7.094;2022-12-01T13:24:39;14.80;55.90
11989;DHT22;6054;50.966;7.094;2022-12-01T13:27:14;14.80;56.20
11989;DHT22;6054;50.966;7.094;2022-12-01T13:29:45;14.80;55.90
11989;DHT22;6054;50.966;7.094;2022-12-01T13:32:26;14.80;55.70
11989;DHT22;6054;50.966;7.094;2022-12-01T13:34:53;14.80;56.00
11989;DHT22;6054;50.966;7.094;2022-12-01T13:37:25;14.90;54.70
11989;DHT22;6054;50.966;7.094;2022-12-01T13:39:54;14.90;56.10
11989;DHT22;6054;50.966;7.094;2022-12-01T13:42:31;14.90;56.20
11989;DHT22;6054;50.966;7.094;2022-12-01T13:45:00;15.00;55.40
11989;DHT22;6054;50.966;7.094;2022-12-01T13:47:37;15.00;55.70
11989;DHT22;6054;50.966;7.094;2022-12-01T13:53:11;15.00;55.70
11989;DHT22;6054;50.966;7.094;2022-12-01T13:55:56;15.00;55.80
11989;DHT22;6054;50.966;7.094;2022-12-01T14:01:43;14.90;55.50
11989;DHT22;6054;50.966;7.094;2022-12-01T14:04:30;15.00;55.40
11989;DHT22;6054;50.966;7.094;2022-12-01T14:07:20;14.90;55.40
11989;DHT22;6054;50.966;7.094;2022-12-01T14:09:49;14.90;55.60
11989;DHT22;6054;50.966;7.094;2022-12-01T14:12:21;15.20;55.90
11989;DHT22;6054;50.966;7.094;2022-12-01T14:14:52;14.80;55.10
11989;DHT22;6054;50.966;7.094;2022-12-01T14:17:28;14.80;55.40
11989;DHT22;6054;50.966;7.094;2022-12-01T14:20:03;15.10;55.80
11989;DHT22;6054;50.966;7.094;2022-12-01T14:22:36;14.90;55.80
11989;DHT22;6054;50.966;7.094;2022-12-01T14:25:04;14.90;55.80
11989;DHT22;6054;50.966;7.094;2022-12-01T14:27:37;14.90;55.60
11989;DHT22;6054;50.966;7.094;2022-12-01T14:36:35;14.80;54.90
11989;DHT22;6054;50.966;7.094;2022-12-01T14:39:09;14.70;55.10
11989;DHT22;6054;50.966;7.094;2022-12-01T14:41:41;14.70;55.20
11989;DHT22;6054;50.966;7.094;2022-12-01T14:44:17;14.70;55.20
11989;DHT22;6054;50.966;7.094;2022-12-01T14:46:48;14.70;55.20
11989;DHT22;6054;50.966;7.094;2022-12-01T14:49:21;14.70;55.10
11989;DHT22;6054;50.966;7.094;2022-12-01T14:51:52;14.70;54.70
11989;DHT22;6054;50.966;7.094;2022-12-01T14:54:24;14.70;54.60
11989;DHT22;6054;50.966;7.094;2022-12-01T14:56:54;14.70;54.50
11989;DHT22;6054;50.966;7.094;2022-12-01T14:59:25;14.70;54.30
11989;DHT22;6054;50.966;7.094;2022-12-01T15:01:55;14.70;54.40
11989;DHT22;6054;50.966;7.094;2022-12-01T15:04:22;14.70;54.20
11989;DHT22;6054;50.966;7.094;2022-12-01T15:06:53;14.70;54.20
11989;DHT22;6054;50.966;7.094;2022-12-01T15:09:21;14.70;53.80
11989;DHT22;6054;50.966;7.094;2022-12-01T15:11:51;14.60;53.80
11989;DHT22;6054;50.966;7.094;2022-12-01T15:14:27;14.60;54.10
11989;DHT22;6054;50.966;7.094;2022-12-01T15:16:54;14.90;54.00
11989;DHT22;6054;50.966;7.094;2022-12-01T15:19:23;14.60;52.80
11989;DHT22;6054;50.966;7.094;2022-12-01T15:21:50;14.60;53.60
11989;DHT22;6054;50.966;7.094;2022-12-01T15:24:21;14.60;52.10
11989;DHT22;6054;50.966;7.094;2022-12-01T15:26:49;14.80;53.30
11989;DHT22;6054;50.966;7.094;2022-12-01T15:29:18;14.60;53.00
11989;DHT22;6054;50.966;7.094;2022-12-01T15:31:49;14.50;52.80
11989;DHT22;6054;50.966;7.094;2022-12-01T15:34:19;14.50;53.10
11989;DHT22;6054;50.966;7.094;2022-12-01T15:36:48;14.50;53.20
11989;DHT22;6054;50.966;7.094;2022-12-01T15:39:17;14.50;53.40
11989;DHT22;6054;50.966;7.094;2022-12-01T15:41:46;14.50;53.20
11989;DHT22;6054;50.966;7.094;2022-12-01T15:44:20;14.50;53.20
11989;DHT22;6054;50.966;7.094;2022-12-01T15:46:48;14.50;53.30
11989;DHT22;6054;50.966;7.094;2022-12-01T15:49:17;14.50;52.20
11989;DHT22;6054;50.966;7.094;2022-12-01T15:51:45;14.50;53.10
11989;DHT22;6054;50.966;7.094;2022-12-01T15:54:17;14.50;53.00
11989;DHT22;6054;50.966;7.094;2022-12-01T15:56:45;14.40;53.30
11989;DHT22;6054;50.966;7.094;2022-12-01T15:59:29;14.50;53.20
11989;DHT22;6054;50.966;7.094;2022-12-01T16:01:58;14.40;53.10
11989;DHT22;6054;50.966;7.094;2022-12-01T16:04:29;14.40;53.80
11989;DHT22;6054;50.966;7.094;2022-12-01T16:07:00;14.50;53.30
11989;DHT22;6054;50.966;7.094;2022-12-01T16:09:30;14.40;52.80
11989;DHT22;6054;50.966;7.094;2022-12-01T16:12:19;14.40;52.50
11989;DHT22;6054;50.966;7.094;2022-12-01T16:14:49;14.40;52.80
11989;DHT22;6054;50.966;7.094;2022-12-01T16:17:18;14.30;52.70
11989;DHT22;6054;50.966;7.094;2022-12-01T16:19:44;14.30;51.90
11989;DHT22;6054;50.966;7.094;2022-12-01T16:22:14;14.40;52.60
11989;DHT22;6054;50.966;7.094;2022-12-01T16:24:45;14.20;52.90
11989;DHT22;6054;50.966;7.094;2022-12-01T16:27:21;14.30;52.90
11989;DHT22;6054;50.966;7.094;2022-12-01T16:29:50;14.20;52.70
11989;DHT22;6054;50.966;7.094;2022-12-01T16:32:20;14.20;52.90
11989;DHT22;6054;50.966;7.094;2022-12-01T16:34:49;14.20;52.80
11989;DHT22;6054;50.966;7.094;2022-12-01T16:37:17;14.50;53.50
11989;DHT22;6054;50.966;7.094;2022-12-01T16:39:44;14.20;53.00
11989;DHT22;6054;50.966;7.094;2022-12-01T16:42:12;14.20;52.70
11989;DHT22;6054;50.966;7.094;2022-12-01T16:44:39;14.40;53.50
11989;DHT22;6054;50.966;7.094;2022-12-01T16:47:12;14.30;52.80
11989;DHT22;6054;50.966;7.094;2022-12-01T16:49:41;14.30;53.40
11989;DHT22;6054;50.966;7.094;2022-12-01T16:52:07;14.30;53.00
11989;DHT22;6054;50.966;7.094;2022-12-01T16:54:34;14.30;52.70
11989;DHT22;6054;50.966;7.094;2022-12-01T16:57:01;14.30;52.50
11989;DHT22;6054;50.966;7.094;2022-12-01T16:59:28;14.40;53.00
11989;DHT22;6054;50.966;7.094;2022-12-01T17:01:55;14.40;52.90
11989;DHT22;6054;50.966;7.094;2022-12-01T17:04:22;14.40;52.20
11989;DHT22;6054;50.966;7.094;2022-12-01T17:06:50;14.40;52.70
11989;DHT22;6054;50.966;7.094;2022-12-01T17:09:17;14.30;52.80
11989;DHT22;6054;50.966;7.094;2022-12-01T17:11:45;14.40;52.40
11989;DHT22;6054;50.966;7.094;2022-12-01T17:14:11;14.30;52.30
11989;DHT22;6054;50.966;7.094;2022-12-01T17:16:38;14.40;52.20
11989;DHT22;6054;50.966;7.094;2022-12-01T17:19:05;14.40;52.60
11989;DHT22;6054;50.966;7.094;2022-12-01T17:21:32;14.40;52.50
11989;DHT22;6054;50.966;7.094;2022-12-01T17:24:00;14.40;52.70
11989;DHT22;6054;50.966;7.094;2022-12-01T17:26:26;14.40;52.40
11989;DHT22;6054;50.966;7.094;2022-12-01T17:28:53;14.40;52.30
11989;DHT22;6054;50.966;7.094;2022-12-01T17:31:20;14.50;52.50
11989;DHT22;6054;50.966;7.094;2022-12-01T17:33:47;14.40;52.80
11989;DHT22;6054;50.966;7.094;2022-12-01T17:36:16;14.40;52.70
11989;DHT22;6054;50.966;7.094;2022-12-01T17:38:44;14.40;52.90
11989;DHT22;6054;50.966;7.094;2022-12-01T17:41:16;14.40;52.90
11989;DHT22;6054;50.966;7.094;2022-12-01T17:43:45;14.40;52.90
11989;DHT22;6054;50.966;7.094;2022-12-01T17:46:12;14.40;52.40
11989;DHT22;6054;50.966;7.094;2022-12-01T17:48:40;14.30;52.80
11989;DHT22;6054;50.966;7.094;2022-12-01T17:51:08;14.40;53.00
11989;DHT22;6054;50.966;7.094;2022-12-01T17:53:35;14.30;52.80
11989;DHT22;6054;50.966;7.094;2022-12-01T17:56:05;14.30;52.80
11989;DHT22;6054;50.966;7.094;2022-12-01T17:58:34;14.40;52.80
11989;DHT22;6054;50.966;7.094;2022-12-01T18:01:01;14.30;52.30
11989;DHT22;6054;50.966;7.094;2022-12-01T18:03:28;14.40;52.90
11989;DHT22;6054;50.966;7.094;2022-12-01T18:05:56;14.30;52.20
11989;DHT22;6054;50.966;7.094;2022-12-01T18:08:23;14.30;52.50
11989;DHT22;6054;50.966;7.094;2022-12-01T18:10:50;14.30;52.70
11989;DHT22;6054;50.966;7.094;2022-12-01T18:13:17;14.30;52.20
11989;DHT22;6054;50.966;7.094;2022-12-01T18:15:45;14.60;51.30
11989;DHT22;6054;50.966;7.094;2022-12-01T18:18:12;14.30;51.60
11989;DHT22;6054;50.966;7.094;2022-12-01T18:20:39;14.30;51.40
11989;DHT22;6054;50.966;7.094;2022-12-01T18:23:07;14.30;52.00
11989;DHT22;6054;50.966;7.094;2022-12-01T18:25:34;14.20;51.50
11989;DHT22;6054;50.966;7.094;2022-12-01T18:28:01;14.20;51.80
11989;DHT22;6054;50.966;7.094;2022-12-01T18:30:28;14.30;51.90
11989;DHT22;6054;50.966;7.094;2022-12-01T18:32:56;14.20;52.10
11989;DHT22;6054;50.966;7.094;2022-12-01T18:35:24;14.40;52.00
11989;DHT22;6054;50.966;7.094;2022-12-01T18:37:51;14.20;52.10
11989;DHT22;6054;50.966;7.094;2022-12-01T18:40:18;14.20;52.00
11989;DHT22;6054;50.966;7.094;2022-12-01T18:42:45;14.20;52.20
11989;DHT22;6054;50.966;7.094;2022-12-01T18:45:12;14.20;52.70
11989;DHT22;6054;50.966;7.094;2022-12-01T18:47:39;14.30;52.20
11989;DHT22;6054;50.966;7.094;2022-12-01T18:50:08;14.20;51.80
11989;DHT22;6054;50.966;7.094;2022-12-01T18:52:35;14.20;52.10
11989;DHT22;6054;50.966;7.094;2022-12-01T18:55:02;14.30;51.70
11989;DHT22;6054;50.966;7.094;2022-12-01T18:57:29;14.20;52.30
11989;DHT22;6054;50.966;7.094;2022-12-01T18:59:56;14.40;52.10
11989;DHT22;6054;50.966;7.094;2022-12-01T19:02:23;14.30;52.20
11989;DHT22;6054;50.966;7.094;2022-12-01T19:04:50;14.20;52.20
11989;DHT22;6054;50.966;7.094;2022-12-01T19:07:18;14.20;52.00
11989;DHT22;6054;50.966;7.094;2022-12-01T19:09:45;14.20;51.60
11989;DHT22;6054;50.966;7.094;2022-12-01T19:12:12;14.10;51.20
11989;DHT22;6054;50.966;7.094;2022-12-01T19:14:39;14.10;50.70
11989;DHT22;6054;50.966;7.094;2022-12-01T19:17:05;14.10;50.10
11989;DHT22;6054;50.966;7.094;2022-12-01T19:19:32;14.10;51.00
11989;DHT22;6054;50.966;7.094;2022-12-01T19:21:59;14.00;51.00
11989;DHT22;6054;50.966;7.094;2022-12-01T19:24:27;14.20;51.20
11989;DHT22;6054;50.966;7.094;2022-12-01T19:26:54;14.10;51.00
11989;DHT22;6054;50.966;7.094;2022-12-01T19:29:21;14.10;51.20
11989;DHT22;6054;50.966;7.094;2022-12-01T19:31:48;14.00;50.30
11989;DHT22;6054;50.966;7.094;2022-12-01T19:34:14;14.00;50.80
11989;DHT22;6054;50.966;7.094;2022-12-01T19:36:41;14.10;51.40
11989;DHT22;6054;50.966;7.094;2022-12-01T19:39:08;14.00;50.70
11989;DHT22;6054;50.966;7.094;2022-12-01T19:41:37;14.00;50.90
11989;DHT22;6054;50.966;7.094;2022-12-01T19:44:04;13.90;51.10
11989;DHT22;6054;50.966;7.094;2022-12-01T19:46:31;14.00;51.30
11989;DHT22;6054;50.966;7.094;2022-12-01T19:48:59;14.10;50.30
11989;DHT22;6054;50.966;7.094;2022-12-01T19:51:28;14.10;51.60
11989;DHT22;6054;50.966;7.094;2022-12-01T19:53:56;13.90;51.50
11989;DHT22;6054;50.966;7.094;2022-12-01T19:56:23;14.10;51.00
11989;DHT22;6054;50.966;7.094;2022-12-01T19:58:52;14.00;51.10
11989;DHT22;6054;50.966;7.094;2022-12-01T20:01:19;14.10;50.40
11989;DHT22;6054;50.966;7.094;2022-12-01T20:03:48;13.90;50.90
11989;DHT22;6054;50.966;7.094;2022-12-01T20:06:19;13.90;51.40
11989;DHT22;6054;50.966;7.094;2022-12-01T20:08:46;14.10;51.60
11989;DHT22;6054;50.966;7.094;2022-12-01T20:11:13;14.10;50.20
11989;DHT22;6054;50.966;7.094;2022-12-01T20:13:42;14.10;51.00
11989;DHT22;6054;50.966;7.094;2022-12-01T20:16:12;13.90;51.30
11989;DHT22;6054;50.966;7.094;2022-12-01T20:18:39;14.00;51.70
11989;DHT22;6054;50.966;7.094;2022-12-01T20:21:08;13.90;51.10
11989;DHT22;6054;50.966;7.094;2022-12-01T20:23:36;13.90;51.40
11989;DHT22;6054;50.966;7.094;2022-12-01T20:26:05;13.90;50.60
11989;DHT22;6054;50.966;7.094;2022-12-01T20:28:33;13.80;51.00
11989;DHT22;6054;50.966;7.094;2022-12-01T20:31:00;13.80;51.10
11989;DHT22;6054;50.966;7.094;2022-12-01T20:33:29;13.90;50.80
11989;DHT22;6054;50.966;7.094;2022-12-01T20:35:56;13.80;50.20
11989;DHT22;6054;50.966;7.094;2022-12-01T20:38:23;13.90;50.70
11989;DHT22;6054;50.966;7.094;2022-12-01T20:40:50;13.90;50.60
11989;DHT22;6054;50.966;7.094;2022-12-01T20:43:17;13.80;50.90
11989;DHT22;6054;50.966;7.094;2022-12-01T20:45:44;13.70;50.00
11989;DHT22;6054;50.966;7.094;2022-12-01T20:48:11;13.70;50.00
11989;DHT22;6054;50.966;7.094;2022-12-01T20:50:39;13.70;49.90
11989;DHT22;6054;50.966;7.094;2022-12-01T20:53:06;13.70;50.20
11989;DHT22;6054;50.966;7.094;2022-12-01T20:55:33;13.90;50.30
11989;DHT22;6054;50.966;7.094;2022-12-01T20:58:01;13.60;49.60
11989;DHT22;6054;50.966;7.094;2022-12-01T21:00:28;13.60;50.10
11989;DHT22;6054;50.966;7.094;2022-12-01T21:02:55;13.60;49.60